No particular awareness of the weather is required.    There are no Weather-warnings


Meteo18 Weather Cam more information Meteo18 Weather Cam


Thunder radar more information blitzortung!


Rain radar more information rain snow radar


Visit our other weather sites:

Template documentation
and downloads

And another site



Weather Underground History page Text

Daily Summary for May 20, 2017 Units:  Metric    English   Both
« Previous Day
Next Day »
Daily Weekly Monthly Yearly Custom
  High: Low: Average:
Temperature: 17.4 °C 7.6 °C 11.6 °C
Dew Point: 11.3 °C 6.9 °C 8.4 °C
Humidity: 96 % 53 % 83 %
Wind Speed: 19.3 km/h 0.0 km/h 5.5 km/h
Wind Gust: 27.4 km/h - -
Wind:- - WSW
Pressure: 1026.6 hPa 1019.2 hPa -
Precipitation: 0.8 mm    
Historical Graphs
 
 
Tabular Data for May 20, 2017
Time Temperature Dew Point Pressure Wind Wind Speed Wind Gust Humidity Rainfall Rate (Hourly)
00:02 8.1 °C 7.3 °C 1019.2 hPa SSW 4.8 km/h 9.7 km/h 95 % 0.0 mm
00:07 8.1 °C 7.3 °C 1019.2 hPa SW 4.8 km/h 8.0 km/h 95 % 0.0 mm
00:12 8.1 °C 7.3 °C 1019.5 hPa SSW 3.2 km/h 8.0 km/h 95 % 0.0 mm
00:17 8.1 °C 7.3 °C 1019.5 hPa SW 1.6 km/h 8.0 km/h 95 % 0.0 mm
00:22 8.1 °C 7.3 °C 1019.5 hPa SSW 4.8 km/h 8.0 km/h 95 % 0.0 mm
00:27 8.1 °C 7.3 °C 1019.5 hPa SW 4.8 km/h 8.0 km/h 95 % 0.0 mm
00:32 8.1 °C 7.3 °C 1019.5 hPa SSW 4.8 km/h 9.7 km/h 95 % 0.0 mm
00:37 8.1 °C 7.3 °C 1019.5 hPa SW 6.4 km/h 9.7 km/h 95 % 0.0 mm
00:42 8.1 °C 7.3 °C 1019.5 hPa SSW 4.8 km/h 9.7 km/h 95 % 0.0 mm
00:47 8.1 °C 7.3 °C 1019.5 hPa South 3.2 km/h 9.7 km/h 95 % 0.0 mm
00:52 8.2 °C 7.6 °C 1019.5 hPa SSW 8.0 km/h 9.7 km/h 96 % 0.0 mm
00:57 8.2 °C 7.6 °C 1019.5 hPa SSW 6.4 km/h 11.3 km/h 96 % 0.0 mm
01:02 8.2 °C 7.6 °C 1019.5 hPa SSW 4.8 km/h 11.3 km/h 96 % 0.0 mm
01:12 8.2 °C 7.4 °C 1019.5 hPa SW 4.8 km/h 11.3 km/h 95 % 0.0 mm
01:17 8.2 °C 7.4 °C 1019.5 hPa SSW 3.2 km/h 11.3 km/h 95 % 0.0 mm
01:22 8.1 °C 7.3 °C 1019.5 hPa SW 9.7 km/h 11.3 km/h 95 % 0.0 mm
01:32 7.9 °C 7.1 °C 1019.5 hPa SW 4.8 km/h 9.7 km/h 95 % 0.0 mm
01:42 7.8 °C 7.0 °C 1019.5 hPa SSW 4.8 km/h 9.7 km/h 95 % 0.0 mm
01:47 7.7 °C 6.9 °C 1019.5 hPa South 4.8 km/h 8.0 km/h 95 % 0.0 mm
01:52 7.7 °C 7.1 °C 1019.5 hPa South 3.2 km/h 8.0 km/h 96 % 0.0 mm
01:57 7.8 °C 7.2 °C 1019.5 hPa SSW 1.6 km/h 11.3 km/h 96 % 0.0 mm
02:02 7.7 °C 6.9 °C 1019.5 hPa SSW 4.8 km/h 11.3 km/h 95 % 0.0 mm
02:12 7.6 °C 6.9 °C 1019.5 hPa SSW 3.2 km/h 12.9 km/h 95 % 0.0 mm
02:17 7.6 °C 7.0 °C 1019.9 hPa SW 8.0 km/h 12.9 km/h 96 % 0.0 mm
02:22 7.7 °C 7.1 °C 1019.5 hPa SW 4.8 km/h 12.9 km/h 96 % 0.0 mm
02:32 7.7 °C 6.9 °C 1019.9 hPa SSW 8.0 km/h 14.5 km/h 95 % 0.0 mm
02:42 7.8 °C 7.0 °C 1019.9 hPa SW 8.0 km/h 14.5 km/h 95 % 0.3 mm
02:47 7.8 °C 7.0 °C 1019.9 hPa SW 6.4 km/h 16.1 km/h 95 % 0.3 mm
02:52 7.8 °C 7.0 °C 1019.9 hPa SSW 6.4 km/h 16.1 km/h 95 % 0.3 mm
02:57 7.8 °C 7.0 °C 1019.9 hPa SW 6.4 km/h 14.5 km/h 95 % 0.3 mm
03:02 7.8 °C 7.0 °C 1019.9 hPa SW 9.7 km/h 14.5 km/h 95 % 0.3 mm
03:12 7.8 °C 7.0 °C 1019.9 hPa SSW 6.4 km/h 14.5 km/h 95 % 0.3 mm
03:17 7.8 °C 7.0 °C 1019.9 hPa SW 6.4 km/h 14.5 km/h 95 % 0.3 mm
03:22 7.9 °C 7.1 °C 1019.9 hPa SW 3.2 km/h 14.5 km/h 95 % 0.3 mm
03:27 7.9 °C 7.1 °C 1019.9 hPa SW 6.4 km/h 14.5 km/h 95 % 0.3 mm
03:32 7.9 °C 7.1 °C 1019.9 hPa SW 8.0 km/h 14.5 km/h 95 % 0.0 mm
03:42 8.0 °C 7.4 °C 1019.9 hPa SSW 4.8 km/h 12.9 km/h 96 % 0.0 mm
03:47 8.1 °C 7.5 °C 1019.9 hPa SSW 8.0 km/h 14.5 km/h 96 % 0.0 mm
03:52 8.2 °C 7.6 °C 1019.9 hPa WSW 6.4 km/h 14.5 km/h 96 % 0.0 mm
03:57 8.3 °C 7.7 °C 1019.9 hPa WSW 3.2 km/h 12.9 km/h 96 % 0.0 mm
04:02 8.4 °C 7.8 °C 1019.9 hPa SSW 4.8 km/h 12.9 km/h 96 % 0.0 mm
04:12 8.5 °C 7.7 °C 1020.2 hPa South 8.0 km/h 12.9 km/h 95 % 0.0 mm
04:17 8.6 °C 7.8 °C 1020.2 hPa SW 4.8 km/h 16.1 km/h 95 % 0.0 mm
04:22 8.6 °C 7.8 °C 1020.2 hPa WSW 9.7 km/h 16.1 km/h 95 % 0.0 mm
04:27 8.6 °C 7.8 °C 1020.2 hPa WSW 11.3 km/h 19.3 km/h 95 % 0.0 mm
04:32 8.6 °C 7.8 °C 1020.2 hPa SW 9.7 km/h 19.3 km/h 95 % 0.0 mm
04:42 8.6 °C 7.8 °C 1020.2 hPa SW 3.2 km/h 24.1 km/h 95 % 0.0 mm
04:52 8.6 °C 7.8 °C 1020.2 hPa SW 8.0 km/h 24.1 km/h 95 % 0.0 mm
04:57 8.6 °C 7.8 °C 1020.2 hPa WSW 6.4 km/h 16.1 km/h 95 % 0.0 mm
05:02 8.6 °C 7.8 °C 1020.2 hPa West 3.2 km/h 16.1 km/h 95 % 0.0 mm
05:12 8.6 °C 7.8 °C 1020.2 hPa West 11.3 km/h 14.5 km/h 95 % 0.0 mm
05:17 8.6 °C 7.8 °C 1020.2 hPa SW 9.7 km/h 17.7 km/h 95 % 0.0 mm
05:22 8.6 °C 7.8 °C 1020.2 hPa SW 9.7 km/h 17.7 km/h 95 % 0.0 mm
05:32 8.6 °C 7.8 °C 1020.2 hPa SSW 12.9 km/h 17.7 km/h 95 % 0.0 mm
05:42 8.6 °C 7.8 °C 1020.5 hPa West 16.1 km/h 17.7 km/h 95 % 0.0 mm
05:52 8.6 °C 7.8 °C 1020.5 hPa WSW 4.8 km/h 19.3 km/h 95 % 0.0 mm
05:57 8.6 °C 7.8 °C 1020.5 hPa WSW 4.8 km/h 19.3 km/h 95 % 0.0 mm
06:02 8.6 °C 7.8 °C 1020.5 hPa SW 6.4 km/h 19.3 km/h 95 % 0.0 mm
06:07 8.6 °C 7.8 °C 1020.5 hPa WSW 3.2 km/h 16.1 km/h 95 % 0.0 mm
06:12 8.6 °C 7.8 °C 1020.5 hPa West 6.4 km/h 16.1 km/h 95 % 0.0 mm
06:17 8.6 °C 7.8 °C 1020.9 hPa SSW 4.8 km/h 16.1 km/h 95 % 0.0 mm
06:22 8.5 °C 7.7 °C 1020.9 hPa WSW 9.7 km/h 16.1 km/h 95 % 0.0 mm
06:32 8.5 °C 7.7 °C 1020.9 hPa West 19.3 km/h 19.3 km/h 95 % 0.0 mm
06:37 8.4 °C 7.6 °C 1020.9 hPa WSW 4.8 km/h 19.3 km/h 95 % 0.0 mm
06:42 8.5 °C 7.7 °C 1021.2 hPa WSW 6.4 km/h 19.3 km/h 95 % 0.0 mm
06:47 8.4 °C 7.6 °C 1021.2 hPa WSW 4.8 km/h 19.3 km/h 95 % 0.0 mm
06:52 8.4 °C 7.6 °C 1021.2 hPa West 4.8 km/h 19.3 km/h 95 % 0.0 mm
06:57 8.4 °C 7.6 °C 1021.6 hPa WSW 4.8 km/h 17.7 km/h 95 % 0.0 mm
07:02 8.4 °C 7.6 °C 1021.6 hPa WSW 11.3 km/h 17.7 km/h 95 % 0.0 mm
07:12 8.5 °C 7.7 °C 1021.6 hPa SW 3.2 km/h 14.5 km/h 95 % 0.0 mm
07:22 8.6 °C 7.8 °C 1021.6 hPa WSW 1.6 km/h 17.7 km/h 95 % 0.0 mm
07:32 8.6 °C 7.8 °C 1021.9 hPa SSW 1.6 km/h 12.9 km/h 95 % 0.0 mm
07:42 8.7 °C 7.9 °C 1021.9 hPa SSE 4.8 km/h 11.3 km/h 95 % 0.0 mm
07:47 8.7 °C 7.9 °C 1021.9 hPa WSW 3.2 km/h 14.5 km/h 95 % 0.0 mm
07:52 8.7 °C 7.9 °C 1021.9 hPa West 8.0 km/h 14.5 km/h 95 % 0.0 mm
08:02 8.9 °C 8.1 °C 1021.9 hPa SW 6.4 km/h 14.5 km/h 95 % 0.0 mm
08:12 9.0 °C 8.1 °C 1022.2 hPa West 6.4 km/h 17.7 km/h 94 % 0.0 mm
08:17 9.1 °C 8.2 °C 1022.2 hPa WSW 6.4 km/h 14.5 km/h 94 % 0.0 mm
08:22 8.9 °C 7.8 °C 1022.2 hPa West 4.8 km/h 14.5 km/h 93 % 0.0 mm
08:32 8.9 °C 8.0 °C 1022.2 hPa WNW 3.2 km/h 17.7 km/h 94 % 0.0 mm
08:42 9.0 °C 8.1 °C 1022.2 hPa SSW 6.4 km/h 17.7 km/h 94 % 0.0 mm
08:47 9.1 °C 8.2 °C 1022.6 hPa WSW 3.2 km/h 14.5 km/h 94 % 0.0 mm
08:52 9.2 °C 8.3 °C 1022.6 hPa SW 9.7 km/h 14.5 km/h 94 % 0.0 mm
08:57 9.2 °C 8.1 °C 1022.6 hPa SW 4.8 km/h 14.5 km/h 93 % 0.0 mm
09:02 9.1 °C 7.9 °C 1022.6 hPa West 9.7 km/h 14.5 km/h 92 % 0.0 mm
09:12 9.4 °C 8.2 °C 1022.6 hPa West 6.4 km/h 22.5 km/h 92 % 0.0 mm
09:17 9.5 °C 8.1 °C 1022.6 hPa West 9.7 km/h 22.5 km/h 91 % 0.0 mm
09:22 9.8 °C 8.6 °C 1022.6 hPa West 8.0 km/h 22.5 km/h 92 % 0.0 mm
09:32 10.1 °C 8.5 °C 1022.9 hPa SW 8.0 km/h 19.3 km/h 90 % 0.0 mm
09:37 10.1 °C 8.5 °C 1022.9 hPa WSW 8.0 km/h 20.9 km/h 90 % 0.0 mm
09:42 10.2 °C 8.6 °C 1022.9 hPa SSW 8.0 km/h 20.9 km/h 90 % 0.0 mm
09:52 10.6 °C 8.9 °C 1022.9 hPa WSW 8.0 km/h 19.3 km/h 89 % 0.0 mm
09:57 10.5 °C 8.6 °C 1022.9 hPa SW 9.7 km/h 19.3 km/h 88 % 0.0 mm
10:02 10.6 °C 8.7 °C 1022.9 hPa West 12.9 km/h 19.3 km/h 88 % 0.0 mm
10:12 11.1 °C 9.0 °C 1023.2 hPa WSW 4.8 km/h 16.1 km/h 87 % 0.0 mm
10:17 11.2 °C 8.9 °C 1023.2 hPa SW 1.6 km/h 19.3 km/h 86 % 0.0 mm
10:22 11.3 °C 8.9 °C 1023.2 hPa WSW 8.0 km/h 19.3 km/h 85 % 0.0 mm
10:32 11.8 °C 9.0 °C 1023.2 hPa SW 11.3 km/h 16.1 km/h 83 % 0.0 mm
10:37 12.2 °C 9.9 °C 1023.2 hPa West 6.4 km/h 17.7 km/h 86 % 0.0 mm
10:42 12.1 °C 8.9 °C 1023.2 hPa West 14.5 km/h 17.7 km/h 81 % 0.0 mm
10:47 12.2 °C 8.7 °C 1023.2 hPa West 8.0 km/h 19.3 km/h 79 % 0.0 mm
10:52 12.4 °C 9.0 °C 1023.2 hPa SW 6.4 km/h 19.3 km/h 80 % 0.0 mm
11:02 12.7 °C 8.4 °C 1023.2 hPa West 11.3 km/h 19.3 km/h 75 % 0.0 mm
11:12 12.8 °C 8.9 °C 1023.2 hPa WSW 12.9 km/h 20.9 km/h 77 % 0.0 mm
11:17 13.1 °C 9.4 °C 1023.2 hPa SW 4.8 km/h 22.5 km/h 78 % 0.0 mm
11:22 12.9 °C 7.8 °C 1023.6 hPa West 8.0 km/h 22.5 km/h 71 % 0.0 mm
11:32 13.5 °C 9.0 °C 1023.6 hPa West 16.1 km/h 22.5 km/h 74 % 0.0 mm
11:42 12.7 °C 8.6 °C 1023.6 hPa WSW 8.0 km/h 16.1 km/h 76 % 0.0 mm
11:47 12.5 °C 8.6 °C 1023.9 hPa West 1.6 km/h 19.3 km/h 77 % 0.0 mm
11:52 12.6 °C 8.7 °C 1023.6 hPa SSW 6.4 km/h 19.3 km/h 77 % 0.0 mm
11:57 12.6 °C 8.5 °C 1023.6 hPa WSW 9.7 km/h 12.9 km/h 76 % 0.0 mm
12:02 12.7 °C 9.0 °C 1023.6 hPa WSW 11.3 km/h 12.9 km/h 78 % 0.0 mm
12:12 13.6 °C 8.6 °C 1023.6 hPa WSW 9.7 km/h 14.5 km/h 72 % 0.0 mm
12:17 13.9 °C 8.5 °C 1023.6 hPa SW 6.4 km/h 14.5 km/h 70 % 0.0 mm
12:22 13.9 °C 7.9 °C 1023.9 hPa WSW 4.8 km/h 19.3 km/h 67 % 0.0 mm
12:27 14.2 °C 9.0 °C 1023.9 hPa SW 6.4 km/h 19.3 km/h 71 % 0.0 mm
12:32 13.9 °C 8.7 °C 1023.9 hPa WSW 6.4 km/h 22.5 km/h 71 % 0.0 mm
12:37 13.6 °C 8.6 °C 1023.9 hPa West 12.9 km/h 22.5 km/h 72 % 0.0 mm
12:42 13.3 °C 8.4 °C 1023.9 hPa West 6.4 km/h 16.1 km/h 72 % 0.0 mm
12:52 13.0 °C 8.7 °C 1023.9 hPa West 8.0 km/h 16.1 km/h 75 % 0.0 mm
13:02 13.1 °C 8.8 °C 1023.9 hPa West 3.2 km/h 12.9 km/h 75 % 0.0 mm
13:12 13.9 °C 8.9 °C 1023.9 hPa WNW 8.0 km/h 11.3 km/h 72 % 0.0 mm
13:17 14.1 °C 8.5 °C 1023.9 hPa WNW 6.4 km/h 17.7 km/h 69 % 0.0 mm
13:22 14.1 °C 8.5 °C 1023.9 hPa West 8.0 km/h 17.7 km/h 69 % 0.0 mm
13:32 14.1 °C 8.5 °C 1023.9 hPa WSW 8.0 km/h 17.7 km/h 69 % 0.0 mm
13:42 14.8 °C 8.5 °C 1023.9 hPa SSW 4.8 km/h 14.5 km/h 66 % 0.0 mm
13:52 14.9 °C 8.1 °C 1024.3 hPa West 8.0 km/h 16.1 km/h 64 % 0.0 mm
13:57 14.9 °C 8.6 °C 1024.3 hPa WSW 11.3 km/h 16.1 km/h 66 % 0.0 mm
14:02 15.0 °C 8.0 °C 1023.9 hPa West 4.8 km/h 16.1 km/h 63 % 0.0 mm
14:12 15.6 °C 8.1 °C 1023.9 hPa West 6.4 km/h 14.5 km/h 61 % 0.0 mm
14:17 15.7 °C 8.2 °C 1023.9 hPa West 9.7 km/h 17.7 km/h 61 % 0.0 mm
14:22 15.6 °C 8.3 °C 1023.9 hPa SW 1.6 km/h 17.7 km/h 62 % 0.0 mm
14:32 15.9 °C 7.9 °C 1023.9 hPa WSW 1.6 km/h 17.7 km/h 59 % 0.0 mm
14:42 15.9 °C 7.4 °C 1023.9 hPa SW 4.8 km/h 11.3 km/h 57 % 0.0 mm
14:52 16.2 °C 7.9 °C 1023.9 hPa WSW 3.2 km/h 16.1 km/h 58 % 0.0 mm
15:02 15.9 °C 7.6 °C 1024.3 hPa WSW 8.0 km/h 16.1 km/h 58 % 0.0 mm
15:12 16.0 °C 7.7 °C 1024.3 hPa West 6.4 km/h 12.9 km/h 58 % 0.0 mm
15:17 15.9 °C 8.1 °C 1024.3 hPa SW 9.7 km/h 20.9 km/h 60 % 0.0 mm
15:22 16.3 °C 8.5 °C 1024.3 hPa WSW 6.4 km/h 20.9 km/h 60 % 0.0 mm
15:32 16.8 °C 8.2 °C 1024.3 hPa WSW 6.4 km/h 20.9 km/h 57 % 0.0 mm
15:37 16.8 °C 8.0 °C 1023.9 hPa WSW 11.3 km/h 17.7 km/h 56 % 0.0 mm
15:42 16.7 °C 8.4 °C 1023.9 hPa SW 9.7 km/h 17.7 km/h 58 % 0.0 mm
15:47 16.6 °C 8.8 °C 1024.3 hPa SSW 3.2 km/h 24.1 km/h 60 % 0.0 mm
15:52 16.6 °C 9.5 °C 1024.3 hPa ESE 4.8 km/h 24.1 km/h 63 % 0.0 mm
15:57 16.5 °C 8.7 °C 1024.3 hPa WSW 12.9 km/h 19.3 km/h 60 % 0.0 mm
16:02 16.6 °C 9.0 °C 1024.3 hPa WSW 4.8 km/h 19.3 km/h 61 % 0.0 mm
16:07 16.6 °C 8.6 °C 1023.9 hPa West 6.4 km/h 16.1 km/h 59 % 0.0 mm
16:12 16.9 °C 10.0 °C 1023.9 hPa SW 1.6 km/h 16.1 km/h 64 % 0.0 mm
16:17 16.8 °C 8.7 °C 1024.3 hPa SW 8.0 km/h 27.4 km/h 59 % 0.0 mm
16:22 16.6 °C 8.3 °C 1024.3 hPa SSE 3.2 km/h 27.4 km/h 58 % 0.0 mm
16:32 16.7 °C 8.4 °C 1024.3 hPa West 8.0 km/h 16.1 km/h 58 % 0.0 mm
16:37 16.5 °C 8.5 °C 1024.3 hPa SSE 8.0 km/h 14.5 km/h 59 % 0.0 mm
16:42 16.7 °C 8.9 °C 1024.3 hPa SW 6.4 km/h 14.5 km/h 60 % 0.0 mm
16:47 16.9 °C 8.6 °C 1024.3 hPa SW 6.4 km/h 11.3 km/h 58 % 0.0 mm
16:52 17.1 °C 9.3 °C 1024.3 hPa WSW 4.8 km/h 11.3 km/h 60 % 0.0 mm
16:57 17.0 °C 8.4 °C 1024.3 hPa SW 11.3 km/h 20.9 km/h 57 % 0.0 mm
17:02 16.6 °C 7.8 °C 1024.3 hPa WNW 8.0 km/h 20.9 km/h 56 % 0.0 mm
17:12 16.8 °C 7.2 °C 1024.6 hPa WNW 3.2 km/h 16.1 km/h 53 % 0.0 mm
17:17 16.9 °C 8.1 °C 1024.6 hPa SSW 8.0 km/h 22.5 km/h 56 % 0.0 mm
17:22 17.2 °C 8.3 °C 1024.6 hPa SW 3.2 km/h 22.5 km/h 56 % 0.0 mm
17:32 17.3 °C 7.9 °C 1024.6 hPa West 3.2 km/h 16.1 km/h 54 % 0.0 mm
17:37 17.4 °C 8.3 °C 1024.6 hPa WSW 9.7 km/h 16.1 km/h 55 % 0.0 mm
17:42 17.4 °C 8.5 °C 1024.3 hPa SSW 8.0 km/h 16.1 km/h 56 % 0.0 mm
17:52 17.3 °C 8.2 °C 1024.6 hPa South 9.7 km/h 17.7 km/h 55 % 0.0 mm
18:02 17.1 °C 7.4 °C 1024.6 hPa SW 11.3 km/h 16.1 km/h 53 % 0.0 mm
18:12 17.2 °C 8.1 °C 1024.6 hPa SSW 6.4 km/h 19.3 km/h 55 % 0.0 mm
18:17 17.3 °C 9.2 °C 1024.6 hPa SSW 9.7 km/h 19.3 km/h 59 % 0.0 mm
18:22 17.1 °C 9.3 °C 1024.6 hPa SW 8.0 km/h 17.7 km/h 60 % 0.0 mm
18:27 16.7 °C 9.4 °C 1024.6 hPa SW 3.2 km/h 17.7 km/h 62 % 0.0 mm
18:32 16.4 °C 9.6 °C 1024.6 hPa WSW 4.8 km/h 19.3 km/h 64 % 0.0 mm
18:37 16.1 °C 9.5 °C 1024.9 hPa WSW 11.3 km/h 19.3 km/h 65 % 0.0 mm
18:42 15.9 °C 9.6 °C 1024.9 hPa SW 1.6 km/h 17.7 km/h 66 % 0.0 mm
18:47 15.8 °C 9.9 °C 1024.9 hPa West 6.4 km/h 16.1 km/h 68 % 0.0 mm
18:52 15.6 °C 9.7 °C 1024.9 hPa WNW 11.3 km/h 16.1 km/h 68 % 0.0 mm
18:57 15.1 °C 10.1 °C 1025.3 hPa WSW 6.4 km/h 22.5 km/h 72 % 0.0 mm
19:02 14.1 °C 9.5 °C 1025.3 hPa WNW 14.5 km/h 22.5 km/h 74 % 0.0 mm
19:12 12.7 °C 9.9 °C 1025.3 hPa WNW 8.0 km/h 22.5 km/h 83 % 0.5 mm
19:17 12.4 °C 9.8 °C 1025.3 hPa North 3.2 km/h 19.3 km/h 84 % 0.5 mm
19:22 12.3 °C 9.9 °C 1025.3 hPa NNW 3.2 km/h 19.3 km/h 85 % 0.5 mm
19:32 12.2 °C 9.9 °C 1025.3 hPa NNW 3.2 km/h 14.5 km/h 86 % 0.5 mm
19:42 12.6 °C 10.3 °C 1025.3 hPa NNW 1.6 km/h 6.4 km/h 86 % 0.5 mm
19:47 13.1 °C 10.6 °C 1025.3 hPa NNW 1.6 km/h 6.4 km/h 85 % 0.5 mm
19:52 13.5 °C 11.0 °C 1025.3 hPa Calm   6.4 km/h 85 % 0.5 mm
20:02 14.2 °C 11.0 °C 1025.3 hPa Calm   4.8 km/h 81 % 0.5 mm
20:07 14.7 °C 11.3 °C 1025.3 hPa Calm   3.2 km/h 80 % 0.5 mm
20:12 15.1 °C 10.9 °C 1025.6 hPa WNW 1.6 km/h 3.2 km/h 76 % 0.3 mm
20:17 15.0 °C 11.0 °C 1025.6 hPa Calm   3.2 km/h 77 % 0.0 mm
20:22 15.3 °C 11.1 °C 1025.6 hPa Calm   3.2 km/h 76 % 0.0 mm
20:27 15.3 °C 11.3 °C 1025.6 hPa Calm   3.2 km/h 77 % 0.0 mm
20:32 15.1 °C 10.9 °C 1025.6 hPa Calm   3.2 km/h 76 % 0.0 mm
20:42 15.1 °C 10.5 °C 1025.6 hPa Calm   1.6 km/h 74 % 0.0 mm
20:47 14.9 °C 10.9 °C 1025.6 hPa Calm   1.6 km/h 77 % 0.0 mm
20:52 14.3 °C 10.5 °C 1025.6 hPa Calm   1.6 km/h 78 % 0.0 mm
20:57 13.7 °C 10.7 °C 1026.0 hPa Calm     82 % 0.0 mm
21:02 13.0 °C 10.2 °C 1026.0 hPa Calm     83 % 0.0 mm
21:12 12.2 °C 10.1 °C 1026.0 hPa Calm   1.6 km/h 87 % 0.0 mm
21:17 12.0 °C 10.2 °C 1026.0 hPa Calm     89 % 0.0 mm
21:22 11.6 °C 9.8 °C 1026.0 hPa Calm     89 % 0.0 mm
21:27 11.4 °C 9.8 °C 1026.0 hPa Calm     90 % 0.0 mm
21:32 11.2 °C 9.8 °C 1026.0 hPa Calm     91 % 0.0 mm
21:37 11.1 °C 9.7 °C 1026.0 hPa WNW 1.6 km/h   91 % 0.0 mm
21:42 10.9 °C 9.5 °C 1026.0 hPa Calm     91 % 0.0 mm
21:52 10.8 °C 9.6 °C 1026.3 hPa Calm   1.6 km/h 92 % 0.0 mm
21:57 10.7 °C 9.5 °C 1026.3 hPa Calm   1.6 km/h 92 % 0.0 mm
22:02 10.6 °C 9.5 °C 1026.3 hPa Calm   1.6 km/h 93 % 0.0 mm
22:12 10.6 °C 9.5 °C 1026.3 hPa Calm   1.6 km/h 93 % 0.0 mm
22:17 10.5 °C 9.4 °C 1026.3 hPa Calm   1.6 km/h 93 % 0.0 mm
22:22 10.4 °C 9.3 °C 1026.3 hPa WNW 1.6 km/h 1.6 km/h 93 % 0.0 mm
22:32 10.2 °C 9.1 °C 1026.6 hPa Calm   3.2 km/h 93 % 0.0 mm
22:37 10.1 °C 9.0 °C 1026.6 hPa Calm   3.2 km/h 93 % 0.0 mm
22:42 10.1 °C 9.2 °C 1026.6 hPa Calm   3.2 km/h 94 % 0.0 mm
22:52 9.9 °C 9.0 °C 1026.6 hPa Calm   1.6 km/h 94 % 0.0 mm
22:57 9.9 °C 9.1 °C 1026.6 hPa Calm   1.6 km/h 95 % 0.0 mm
23:02 9.9 °C 9.0 °C 1026.6 hPa Calm   1.6 km/h 94 % 0.0 mm
23:12 9.7 °C 8.8 °C 1026.6 hPa Calm     94 % 0.0 mm
23:17 9.4 °C 8.5 °C 1026.6 hPa North 1.6 km/h 1.6 km/h 94 % 0.0 mm
23:22 9.4 °C 8.6 °C 1026.6 hPa Calm   1.6 km/h 95 % 0.0 mm
23:27 9.3 °C 8.5 °C 1026.6 hPa Calm   1.6 km/h 95 % 0.0 mm
23:32 9.3 °C 8.5 °C 1026.6 hPa Calm   1.6 km/h 95 % 0.0 mm
23:37 9.3 °C 8.5 °C 1026.6 hPa Calm   1.6 km/h 95 % 0.0 mm
23:42 9.2 °C 8.4 °C 1026.6 hPa Calm   1.6 km/h 95 % 0.0 mm
23:52 8.9 °C 8.1 °C 1026.6 hPa Calm     95 % 0.0 mm
Meteo18
Compliments of Weather Underground - 4 mb

Script developed by  Jim McMurry - jmcmurry@mwt.net Adapted for the template by  Wim van der Kuil - Leuven-Template.eu

You find our weather info also at:

European Weather Network

Weather Underground

Equipment we use:

Weather-station
Davis Vue

Weather-program
Meteohub

Weather-server
Raspberry PI 2 B+

Provider
1 and 1

Davis Vue

Meteohub

Raspberry PI 2 B+

1 and 1